Terminal Aerodrome Forecast
Issued by NWS

Home | Current Version | Previous Version | Text Only | Print | Product List | Glossary On
Versions: 1 2 3 4 5 6 7 8 9 10 11 12 13 14 15 16 17 18 19 20 21 22 23 24 25 26 27 28
000
FTUS42 KJAX 080202 AAA
TAFVQQ
TAF AMD
KVQQ 080202Z 0802/0824 28004KT P6SM SCT050 BKN150 OVC250
     FM080400 00000KT P6SM FEW050 SCT150 BKN250
     FM081000 00000KT 4SM BR FEW008 SCT250
      TEMPO 0810/0813 1 1/2SM BR SCT008
     FM081300 16006KT P6SM SCT250
     FM081900 14010G15KT P6SM VCTS FEW025 SCT040 BKN060CB
      TEMPO 0820/0823 VRB15G25KT 3SM TSRA SCT025 BKN040CB=

USA.gov is the U.S. government's official web portal to all federal, state and local government web resources and services.